sensor_id;sensor_type;location;lat;lon;timestamp;temperature;humidity
75262;DHT22;63859;51.064;4.580;2023-11-19T00:02:23;13.30;99.90
75262;DHT22;63859;51.064;4.580;2023-11-19T00:04:49;13.30;99.90
75262;DHT22;63859;51.064;4.580;2023-11-19T00:07:15;13.30;99.90
75262;DHT22;63859;51.064;4.580;2023-11-19T00:09:41;13.30;99.90
75262;DHT22;63859;51.064;4.580;2023-11-19T00:12:07;13.30;99.90
75262;DHT22;63859;51.064;4.580;2023-11-19T00:14:36;13.30;99.90
75262;DHT22;63859;51.064;4.580;2023-11-19T00:17:01;13.30;99.90
75262;DHT22;63859;51.064;4.580;2023-11-19T00:19:27;13.30;99.90
75262;DHT22;63859;51.064;4.580;2023-11-19T00:21:52;13.30;99.90
75262;DHT22;63859;51.064;4.580;2023-11-19T00:24:18;13.30;99.90
75262;DHT22;63859;51.064;4.580;2023-11-19T00:26:44;13.30;99.90
75262;DHT22;63859;51.064;4.580;2023-11-19T00:29:10;13.30;99.90
75262;DHT22;63859;51.064;4.580;2023-11-19T00:31:36;13.30;99.90
75262;DHT22;63859;51.064;4.580;2023-11-19T00:34:02;13.30;99.90
75262;DHT22;63859;51.064;4.580;2023-11-19T00:36:28;13.30;99.90
75262;DHT22;63859;51.064;4.580;2023-11-19T00:38:54;13.30;99.90
75262;DHT22;63859;51.064;4.580;2023-11-19T00:41:20;13.30;99.90
75262;DHT22;63859;51.064;4.580;2023-11-19T00:43:46;13.30;99.90
75262;DHT22;63859;51.064;4.580;2023-11-19T00:46:12;13.30;99.90
75262;DHT22;63859;51.064;4.580;2023-11-19T00:48:39;13.30;99.90
75262;DHT22;63859;51.064;4.580;2023-11-19T00:51:05;13.30;99.90
75262;DHT22;63859;51.064;4.580;2023-11-19T00:53:31;13.30;99.90
75262;DHT22;63859;51.064;4.580;2023-11-19T00:55:57;13.40;99.90
75262;DHT22;63859;51.064;4.580;2023-11-19T00:58:23;13.40;99.90
75262;DHT22;63859;51.064;4.580;2023-11-19T01:00:49;13.40;99.90
75262;DHT22;63859;51.064;4.580;2023-11-19T01:03:14;13.40;99.90
75262;DHT22;63859;51.064;4.580;2023-11-19T01:05:41;13.40;99.90
75262;DHT22;63859;51.064;4.580;2023-11-19T01:08:07;13.40;99.90
75262;DHT22;63859;51.064;4.580;2023-11-19T01:10:33;13.50;99.90
75262;DHT22;63859;51.064;4.580;2023-11-19T01:12:59;13.50;99.90
75262;DHT22;63859;51.064;4.580;2023-11-19T01:15:25;13.50;99.90
75262;DHT22;63859;51.064;4.580;2023-11-19T01:17:52;13.50;99.90
75262;DHT22;63859;51.064;4.580;2023-11-19T01:20:18;13.50;99.90
75262;DHT22;63859;51.064;4.580;2023-11-19T01:22:43;13.50;99.90
75262;DHT22;63859;51.064;4.580;2023-11-19T01:25:10;13.50;99.90
75262;DHT22;63859;51.064;4.580;2023-11-19T01:27:35;13.50;99.90
75262;DHT22;63859;51.064;4.580;2023-11-19T01:30:02;13.50;99.90
75262;DHT22;63859;51.064;4.580;2023-11-19T01:32:31;13.40;99.90
75262;DHT22;63859;51.064;4.580;2023-11-19T01:34:57;13.40;99.90
75262;DHT22;63859;51.064;4.580;2023-11-19T01:37:23;13.50;99.90
75262;DHT22;63859;51.064;4.580;2023-11-19T01:39:49;13.40;99.90
75262;DHT22;63859;51.064;4.580;2023-11-19T01:42:14;13.40;99.90
75262;DHT22;63859;51.064;4.580;2023-11-19T01:44:41;13.50;99.90
75262;DHT22;63859;51.064;4.580;2023-11-19T01:47:07;13.50;99.90
75262;DHT22;63859;51.064;4.580;2023-11-19T01:49:34;13.40;99.90
75262;DHT22;63859;51.064;4.580;2023-11-19T01:52:00;13.40;99.90
75262;DHT22;63859;51.064;4.580;2023-11-19T01:54:26;13.40;99.90
75262;DHT22;63859;51.064;4.580;2023-11-19T01:56:54;13.40;99.90
75262;DHT22;63859;51.064;4.580;2023-11-19T01:59:22;13.40;99.90
75262;DHT22;63859;51.064;4.580;2023-11-19T02:01:53;13.40;99.90
75262;DHT22;63859;51.064;4.580;2023-11-19T02:04:19;13.40;99.90
75262;DHT22;63859;51.064;4.580;2023-11-19T02:06:48;13.40;99.90
75262;DHT22;63859;51.064;4.580;2023-11-19T02:09:18;13.30;99.90
75262;DHT22;63859;51.064;4.580;2023-11-19T02:11:45;13.30;99.90
75262;DHT22;63859;51.064;4.580;2023-11-19T02:14:15;13.30;99.90
75262;DHT22;63859;51.064;4.580;2023-11-19T02:16:41;13.30;99.90
75262;DHT22;63859;51.064;4.580;2023-11-19T02:19:06;13.20;99.90
75262;DHT22;63859;51.064;4.580;2023-11-19T02:21:33;13.20;99.90
75262;DHT22;63859;51.064;4.580;2023-11-19T02:23:59;13.20;99.90
75262;DHT22;63859;51.064;4.580;2023-11-19T02:26:47;13.10;99.90
75262;DHT22;63859;51.064;4.580;2023-11-19T02:29:16;13.10;99.90
75262;DHT22;63859;51.064;4.580;2023-11-19T02:31:41;13.10;99.90
75262;DHT22;63859;51.064;4.580;2023-11-19T02:34:07;13.10;99.90
75262;DHT22;63859;51.064;4.580;2023-11-19T02:36:33;13.10;99.90
75262;DHT22;63859;51.064;4.580;2023-11-19T02:38:58;13.10;99.90
75262;DHT22;63859;51.064;4.580;2023-11-19T02:41:25;13.10;99.90
75262;DHT22;63859;51.064;4.580;2023-11-19T02:43:50;13.10;99.90
75262;DHT22;63859;51.064;4.580;2023-11-19T02:46:16;13.00;99.90
75262;DHT22;63859;51.064;4.580;2023-11-19T02:48:43;13.00;99.90
75262;DHT22;63859;51.064;4.580;2023-11-19T02:51:10;12.90;99.90
75262;DHT22;63859;51.064;4.580;2023-11-19T02:53:36;12.90;99.90
75262;DHT22;63859;51.064;4.580;2023-11-19T02:56:03;12.90;99.90
75262;DHT22;63859;51.064;4.580;2023-11-19T02:58:37;12.90;99.90
75262;DHT22;63859;51.064;4.580;2023-11-19T03:01:04;12.90;99.90
75262;DHT22;63859;51.064;4.580;2023-11-19T03:03:38;12.90;99.90
75262;DHT22;63859;51.064;4.580;2023-11-19T03:06:06;12.90;99.90
75262;DHT22;63859;51.064;4.580;2023-11-19T03:08:34;12.90;99.90
75262;DHT22;63859;51.064;4.580;2023-11-19T03:11:00;12.90;99.90
75262;DHT22;63859;51.064;4.580;2023-11-19T03:13:26;12.80;99.90
75262;DHT22;63859;51.064;4.580;2023-11-19T03:15:52;12.80;99.90
75262;DHT22;63859;51.064;4.580;2023-11-19T03:18:19;12.80;99.90
75262;DHT22;63859;51.064;4.580;2023-11-19T03:20:46;12.80;99.90
75262;DHT22;63859;51.064;4.580;2023-11-19T03:23:12;12.80;99.90
75262;DHT22;63859;51.064;4.580;2023-11-19T03:25:38;12.80;99.90
75262;DHT22;63859;51.064;4.580;2023-11-19T03:28:04;12.80;99.90
75262;DHT22;63859;51.064;4.580;2023-11-19T03:30:30;12.80;99.90
75262;DHT22;63859;51.064;4.580;2023-11-19T03:32:56;12.80;99.90
75262;DHT22;63859;51.064;4.580;2023-11-19T03:35:23;12.80;99.90
75262;DHT22;63859;51.064;4.580;2023-11-19T03:37:49;12.80;99.90
75262;DHT22;63859;51.064;4.580;2023-11-19T03:40:15;12.70;99.90
75262;DHT22;63859;51.064;4.580;2023-11-19T03:42:40;12.70;99.90
75262;DHT22;63859;51.064;4.580;2023-11-19T03:45:07;12.70;99.90
75262;DHT22;63859;51.064;4.580;2023-11-19T03:47:35;12.60;99.90
75262;DHT22;63859;51.064;4.580;2023-11-19T03:50:02;12.70;99.90
75262;DHT22;63859;51.064;4.580;2023-11-19T03:52:28;12.60;99.90
75262;DHT22;63859;51.064;4.580;2023-11-19T03:54:54;12.60;99.90
75262;DHT22;63859;51.064;4.580;2023-11-19T03:57:21;12.60;99.90
75262;DHT22;63859;51.064;4.580;2023-11-19T03:59:46;12.60;99.90
75262;DHT22;63859;51.064;4.580;2023-11-19T04:02:12;12.60;99.90
75262;DHT22;63859;51.064;4.580;2023-11-19T04:04:38;12.60;99.90
75262;DHT22;63859;51.064;4.580;2023-11-19T04:07:06;12.60;99.90
75262;DHT22;63859;51.064;4.580;2023-11-19T04:09:32;12.60;99.90
75262;DHT22;63859;51.064;4.580;2023-11-19T04:12:03;12.60;99.90
75262;DHT22;63859;51.064;4.580;2023-11-19T04:14:29;12.60;99.90
75262;DHT22;63859;51.064;4.580;2023-11-19T04:16:55;12.60;99.90
75262;DHT22;63859;51.064;4.580;2023-11-19T04:19:21;12.50;99.90
75262;DHT22;63859;51.064;4.580;2023-11-19T04:21:47;12.50;99.90
75262;DHT22;63859;51.064;4.580;2023-11-19T04:24:13;12.50;99.90
75262;DHT22;63859;51.064;4.580;2023-11-19T04:26:43;12.50;99.90
75262;DHT22;63859;51.064;4.580;2023-11-19T04:29:11;12.40;99.90
75262;DHT22;63859;51.064;4.580;2023-11-19T04:31:37;12.40;99.90
75262;DHT22;63859;51.064;4.580;2023-11-19T04:34:03;12.40;99.90
75262;DHT22;63859;51.064;4.580;2023-11-19T04:36:28;12.40;99.90
75262;DHT22;63859;51.064;4.580;2023-11-19T04:38:55;12.40;99.90
75262;DHT22;63859;51.064;4.580;2023-11-19T04:41:21;12.40;99.90
75262;DHT22;63859;51.064;4.580;2023-11-19T04:43:46;12.30;99.90
75262;DHT22;63859;51.064;4.580;2023-11-19T04:46:12;12.30;99.90
75262;DHT22;63859;51.064;4.580;2023-11-19T04:48:38;12.30;99.90
75262;DHT22;63859;51.064;4.580;2023-11-19T04:51:07;12.30;99.90
75262;DHT22;63859;51.064;4.580;2023-11-19T04:53:34;12.30;99.90
75262;DHT22;63859;51.064;4.580;2023-11-19T04:56:00;12.20;99.90
75262;DHT22;63859;51.064;4.580;2023-11-19T04:58:28;12.20;99.90
75262;DHT22;63859;51.064;4.580;2023-11-19T05:00:54;12.20;99.90
75262;DHT22;63859;51.064;4.580;2023-11-19T05:03:20;12.20;99.90
75262;DHT22;63859;51.064;4.580;2023-11-19T05:05:45;12.20;99.90
75262;DHT22;63859;51.064;4.580;2023-11-19T05:08:11;12.20;99.90
75262;DHT22;63859;51.064;4.580;2023-11-19T05:10:37;12.20;99.90
75262;DHT22;63859;51.064;4.580;2023-11-19T05:13:02;12.20;99.90
75262;DHT22;63859;51.064;4.580;2023-11-19T05:15:28;12.20;99.90
75262;DHT22;63859;51.064;4.580;2023-11-19T05:17:53;12.20;99.90
75262;DHT22;63859;51.064;4.580;2023-11-19T05:20:19;12.10;99.90
75262;DHT22;63859;51.064;4.580;2023-11-19T05:22:45;12.10;99.90
75262;DHT22;63859;51.064;4.580;2023-11-19T05:25:11;12.10;99.90
75262;DHT22;63859;51.064;4.580;2023-11-19T05:27:37;12.10;99.90
75262;DHT22;63859;51.064;4.580;2023-11-19T05:30:05;12.10;99.90
75262;DHT22;63859;51.064;4.580;2023-11-19T05:32:33;12.00;99.90
75262;DHT22;63859;51.064;4.580;2023-11-19T05:34:58;12.00;99.90
75262;DHT22;63859;51.064;4.580;2023-11-19T05:37:24;11.90;99.90
75262;DHT22;63859;51.064;4.580;2023-11-19T05:39:50;11.90;99.90
75262;DHT22;63859;51.064;4.580;2023-11-19T05:42:16;11.90;99.90
75262;DHT22;63859;51.064;4.580;2023-11-19T05:44:42;11.80;99.90
75262;DHT22;63859;51.064;4.580;2023-11-19T05:47:08;11.80;99.90
75262;DHT22;63859;51.064;4.580;2023-11-19T05:49:33;11.70;99.90
75262;DHT22;63859;51.064;4.580;2023-11-19T05:51:59;11.70;99.90
75262;DHT22;63859;51.064;4.580;2023-11-19T05:54:27;11.70;99.90
75262;DHT22;63859;51.064;4.580;2023-11-19T05:56:52;11.70;99.90
75262;DHT22;63859;51.064;4.580;2023-11-19T05:59:20;11.70;99.90
75262;DHT22;63859;51.064;4.580;2023-11-19T06:01:45;11.60;99.90
75262;DHT22;63859;51.064;4.580;2023-11-19T06:04:12;11.60;99.90
75262;DHT22;63859;51.064;4.580;2023-11-19T06:06:37;11.60;99.90
75262;DHT22;63859;51.064;4.580;2023-11-19T06:09:03;11.50;99.90
75262;DHT22;63859;51.064;4.580;2023-11-19T06:11:30;11.60;99.90
75262;DHT22;63859;51.064;4.580;2023-11-19T06:13:55;11.60;99.90
75262;DHT22;63859;51.064;4.580;2023-11-19T06:16:21;11.50;99.90
75262;DHT22;63859;51.064;4.580;2023-11-19T06:18:47;11.50;99.90
75262;DHT22;63859;51.064;4.580;2023-11-19T06:21:13;11.50;99.90
75262;DHT22;63859;51.064;4.580;2023-11-19T06:23:38;11.50;99.90
75262;DHT22;63859;51.064;4.580;2023-11-19T06:26:04;11.60;99.90
75262;DHT22;63859;51.064;4.580;2023-11-19T06:28:31;11.50;99.90
75262;DHT22;63859;51.064;4.580;2023-11-19T06:30:57;11.60;99.90
75262;DHT22;63859;51.064;4.580;2023-11-19T06:33:24;11.60;99.90
75262;DHT22;63859;51.064;4.580;2023-11-19T06:35:50;11.60;99.90
75262;DHT22;63859;51.064;4.580;2023-11-19T06:38:15;11.60;99.90
75262;DHT22;63859;51.064;4.580;2023-11-19T06:40:41;11.60;99.90
75262;DHT22;63859;51.064;4.580;2023-11-19T06:43:07;11.60;99.90
75262;DHT22;63859;51.064;4.580;2023-11-19T06:45:34;11.60;99.90
75262;DHT22;63859;51.064;4.580;2023-11-19T06:48:03;11.60;99.90
75262;DHT22;63859;51.064;4.580;2023-11-19T06:50:30;11.60;99.90
75262;DHT22;63859;51.064;4.580;2023-11-19T06:52:56;11.60;99.90
75262;DHT22;63859;51.064;4.580;2023-11-19T06:55:22;11.60;99.90
75262;DHT22;63859;51.064;4.580;2023-11-19T06:57:47;11.60;99.90
75262;DHT22;63859;51.064;4.580;2023-11-19T07:00:13;11.50;99.90
75262;DHT22;63859;51.064;4.580;2023-11-19T07:02:39;11.50;99.90
75262;DHT22;63859;51.064;4.580;2023-11-19T07:05:05;11.50;99.90
75262;DHT22;63859;51.064;4.580;2023-11-19T07:07:32;11.50;99.90
75262;DHT22;63859;51.064;4.580;2023-11-19T07:09:58;11.50;99.90
75262;DHT22;63859;51.064;4.580;2023-11-19T07:12:24;11.50;99.90
75262;DHT22;63859;51.064;4.580;2023-11-19T07:14:52;11.50;99.90
75262;DHT22;63859;51.064;4.580;2023-11-19T07:17:18;11.40;99.90
75262;DHT22;63859;51.064;4.580;2023-11-19T07:19:46;11.40;99.90
75262;DHT22;63859;51.064;4.580;2023-11-19T07:22:12;11.40;99.90
75262;DHT22;63859;51.064;4.580;2023-11-19T07:24:39;11.40;99.90
75262;DHT22;63859;51.064;4.580;2023-11-19T07:27:05;11.40;99.90
75262;DHT22;63859;51.064;4.580;2023-11-19T07:29:32;11.40;99.90
75262;DHT22;63859;51.064;4.580;2023-11-19T07:31:57;11.40;99.90
75262;DHT22;63859;51.064;4.580;2023-11-19T07:34:24;11.40;99.90
75262;DHT22;63859;51.064;4.580;2023-11-19T07:36:50;11.40;99.90
75262;DHT22;63859;51.064;4.580;2023-11-19T07:39:15;11.40;99.90
75262;DHT22;63859;51.064;4.580;2023-11-19T07:41:41;11.40;99.90
75262;DHT22;63859;51.064;4.580;2023-11-19T07:44:07;11.40;99.90
75262;DHT22;63859;51.064;4.580;2023-11-19T07:46:32;11.40;99.90
75262;DHT22;63859;51.064;4.580;2023-11-19T07:48:58;11.50;99.90
75262;DHT22;63859;51.064;4.580;2023-11-19T07:51:24;11.40;99.90
75262;DHT22;63859;51.064;4.580;2023-11-19T07:53:49;11.40;99.90
75262;DHT22;63859;51.064;4.580;2023-11-19T07:56:15;11.50;99.90
75262;DHT22;63859;51.064;4.580;2023-11-19T07:58:41;11.50;99.90
75262;DHT22;63859;51.064;4.580;2023-11-19T08:01:07;11.50;99.90
75262;DHT22;63859;51.064;4.580;2023-11-19T08:03:33;11.50;99.90
75262;DHT22;63859;51.064;4.580;2023-11-19T08:06:03;11.60;99.90
75262;DHT22;63859;51.064;4.580;2023-11-19T08:08:28;11.60;99.90
75262;DHT22;63859;51.064;4.580;2023-11-19T08:10:58;11.70;99.90
75262;DHT22;63859;51.064;4.580;2023-11-19T08:13:24;11.70;99.90
75262;DHT22;63859;51.064;4.580;2023-11-19T08:15:50;11.70;99.90
75262;DHT22;63859;51.064;4.580;2023-11-19T08:18:17;11.70;99.90
75262;DHT22;63859;51.064;4.580;2023-11-19T08:20:43;11.70;99.90
75262;DHT22;63859;51.064;4.580;2023-11-19T08:23:10;11.80;99.90
75262;DHT22;63859;51.064;4.580;2023-11-19T08:25:36;11.70;99.90
75262;DHT22;63859;51.064;4.580;2023-11-19T08:28:02;11.80;99.90
75262;DHT22;63859;51.064;4.580;2023-11-19T08:30:29;11.80;99.90
75262;DHT22;63859;51.064;4.580;2023-11-19T08:32:55;11.80;99.90
75262;DHT22;63859;51.064;4.580;2023-11-19T08:35:21;11.80;99.90
75262;DHT22;63859;51.064;4.580;2023-11-19T08:37:47;11.90;99.90
75262;DHT22;63859;51.064;4.580;2023-11-19T08:40:12;11.90;99.90
75262;DHT22;63859;51.064;4.580;2023-11-19T08:42:40;12.00;99.90
75262;DHT22;63859;51.064;4.580;2023-11-19T08:45:07;12.00;99.90
75262;DHT22;63859;51.064;4.580;2023-11-19T08:47:35;12.00;99.90
75262;DHT22;63859;51.064;4.580;2023-11-19T08:50:01;12.00;99.90
75262;DHT22;63859;51.064;4.580;2023-11-19T08:52:27;12.00;99.90
75262;DHT22;63859;51.064;4.580;2023-11-19T08:54:52;12.00;99.90
75262;DHT22;63859;51.064;4.580;2023-11-19T08:57:18;12.00;99.90
75262;DHT22;63859;51.064;4.580;2023-11-19T08:59:44;12.00;99.90
75262;DHT22;63859;51.064;4.580;2023-11-19T09:02:11;12.10;99.90
75262;DHT22;63859;51.064;4.580;2023-11-19T09:04:37;12.10;99.90
75262;DHT22;63859;51.064;4.580;2023-11-19T09:07:02;12.20;99.90
75262;DHT22;63859;51.064;4.580;2023-11-19T09:09:29;12.20;99.90
75262;DHT22;63859;51.064;4.580;2023-11-19T09:11:55;12.20;99.90
75262;DHT22;63859;51.064;4.580;2023-11-19T09:14:21;12.20;99.90
75262;DHT22;63859;51.064;4.580;2023-11-19T09:16:51;12.20;99.90
75262;DHT22;63859;51.064;4.580;2023-11-19T09:19:17;12.20;99.90
75262;DHT22;63859;51.064;4.580;2023-11-19T09:21:43;12.20;99.90
75262;DHT22;63859;51.064;4.580;2023-11-19T09:24:09;12.20;99.90
75262;DHT22;63859;51.064;4.580;2023-11-19T09:26:35;12.20;99.90
75262;DHT22;63859;51.064;4.580;2023-11-19T09:29:01;12.30;99.90
75262;DHT22;63859;51.064;4.580;2023-11-19T09:31:27;12.30;99.90
75262;DHT22;63859;51.064;4.580;2023-11-19T09:33:53;12.30;99.90
75262;DHT22;63859;51.064;4.580;2023-11-19T09:36:18;12.30;99.90
75262;DHT22;63859;51.064;4.580;2023-11-19T09:38:45;12.30;99.90
75262;DHT22;63859;51.064;4.580;2023-11-19T09:41:11;12.40;99.90
75262;DHT22;63859;51.064;4.580;2023-11-19T09:43:40;12.50;99.90
75262;DHT22;63859;51.064;4.580;2023-11-19T09:46:08;12.50;99.90
75262;DHT22;63859;51.064;4.580;2023-11-19T09:48:37;12.60;99.90
75262;DHT22;63859;51.064;4.580;2023-11-19T09:51:07;12.60;99.90
75262;DHT22;63859;51.064;4.580;2023-11-19T09:53:34;12.70;99.90
75262;DHT22;63859;51.064;4.580;2023-11-19T09:56:00;12.70;99.90
75262;DHT22;63859;51.064;4.580;2023-11-19T09:58:29;12.70;99.90
75262;DHT22;63859;51.064;4.580;2023-11-19T10:00:55;12.60;99.90
75262;DHT22;63859;51.064;4.580;2023-11-19T10:03:22;12.60;99.90
75262;DHT22;63859;51.064;4.580;2023-11-19T10:05:48;12.50;99.90
75262;DHT22;63859;51.064;4.580;2023-11-19T10:08:14;12.50;99.90
75262;DHT22;63859;51.064;4.580;2023-11-19T10:10:40;12.50;99.90
75262;DHT22;63859;51.064;4.580;2023-11-19T10:13:05;12.60;99.90
75262;DHT22;63859;51.064;4.580;2023-11-19T10:15:36;12.50;99.90
75262;DHT22;63859;51.064;4.580;2023-11-19T10:18:02;12.50;99.90
75262;DHT22;63859;51.064;4.580;2023-11-19T10:20:35;12.40;99.90
75262;DHT22;63859;51.064;4.580;2023-11-19T10:23:01;12.50;99.90
75262;DHT22;63859;51.064;4.580;2023-11-19T10:25:28;12.60;99.90
75262;DHT22;63859;51.064;4.580;2023-11-19T10:27:55;12.70;99.90
75262;DHT22;63859;51.064;4.580;2023-11-19T10:30:23;12.70;99.90
75262;DHT22;63859;51.064;4.580;2023-11-19T10:35:36;12.90;99.90
75262;DHT22;63859;51.064;4.580;2023-11-19T10:38:15;12.90;99.90
75262;DHT22;63859;51.064;4.580;2023-11-19T10:40:41;12.90;99.90
75262;DHT22;63859;51.064;4.580;2023-11-19T10:43:07;12.80;99.90
75262;DHT22;63859;51.064;4.580;2023-11-19T10:45:34;12.80;99.90
75262;DHT22;63859;51.064;4.580;2023-11-19T10:48:00;12.80;99.90
75262;DHT22;63859;51.064;4.580;2023-11-19T10:50:27;12.70;99.90
75262;DHT22;63859;51.064;4.580;2023-11-19T10:52:56;12.70;99.90
75262;DHT22;63859;51.064;4.580;2023-11-19T10:55:28;12.60;99.90
75262;DHT22;63859;51.064;4.580;2023-11-19T10:58:02;12.60;99.90
75262;DHT22;63859;51.064;4.580;2023-11-19T11:00:34;12.60;99.90
75262;DHT22;63859;51.064;4.580;2023-11-19T11:03:11;12.60;99.90
75262;DHT22;63859;51.064;4.580;2023-11-19T11:05:37;12.60;99.90
75262;DHT22;63859;51.064;4.580;2023-11-19T11:08:06;12.60;99.90
75262;DHT22;63859;51.064;4.580;2023-11-19T11:10:34;12.60;99.90
75262;DHT22;63859;51.064;4.580;2023-11-19T11:13:03;12.60;99.90
75262;DHT22;63859;51.064;4.580;2023-11-19T11:15:30;12.70;99.90
75262;DHT22;63859;51.064;4.580;2023-11-19T11:18:00;12.80;99.90
75262;DHT22;63859;51.064;4.580;2023-11-19T11:20:33;12.90;99.90
75262;DHT22;63859;51.064;4.580;2023-11-19T11:26:00;13.00;99.90
75262;DHT22;63859;51.064;4.580;2023-11-19T11:28:52;13.10;99.90
75262;DHT22;63859;51.064;4.580;2023-11-19T11:31:30;13.00;99.90
75262;DHT22;63859;51.064;4.580;2023-11-19T11:37:06;13.10;99.90
75262;DHT22;63859;51.064;4.580;2023-11-19T11:39:36;13.20;99.90
75262;DHT22;63859;51.064;4.580;2023-11-19T11:50:15;13.70;99.90
75262;DHT22;63859;51.064;4.580;2023-11-19T11:55:34;13.80;99.90
75262;DHT22;63859;51.064;4.580;2023-11-19T11:58:00;13.80;99.90
75262;DHT22;63859;51.064;4.580;2023-11-19T12:00:32;13.90;99.90
75262;DHT22;63859;51.064;4.580;2023-11-19T12:03:02;13.80;99.90
75262;DHT22;63859;51.064;4.580;2023-11-19T12:05:30;13.70;99.90
75262;DHT22;63859;51.064;4.580;2023-11-19T12:08:03;13.50;99.90
75262;DHT22;63859;51.064;4.580;2023-11-19T12:10:51;13.40;99.90
75262;DHT22;63859;51.064;4.580;2023-11-19T12:13:17;13.30;99.90
75262;DHT22;63859;51.064;4.580;2023-11-19T12:18:29;13.10;99.90
75262;DHT22;63859;51.064;4.580;2023-11-19T12:20:56;12.90;99.90
75262;DHT22;63859;51.064;4.580;2023-11-19T12:23:22;12.80;99.90
75262;DHT22;63859;51.064;4.580;2023-11-19T12:25:48;12.70;99.90
75262;DHT22;63859;51.064;4.580;2023-11-19T12:28:15;12.70;99.90
75262;DHT22;63859;51.064;4.580;2023-11-19T12:30:45;12.70;99.90
75262;DHT22;63859;51.064;4.580;2023-11-19T12:33:11;12.70;99.90
75262;DHT22;63859;51.064;4.580;2023-11-19T12:35:41;12.60;99.90
75262;DHT22;63859;51.064;4.580;2023-11-19T12:38:07;12.60;99.90
75262;DHT22;63859;51.064;4.580;2023-11-19T12:40:33;12.60;99.90
75262;DHT22;63859;51.064;4.580;2023-11-19T12:42:59;12.60;99.90
75262;DHT22;63859;51.064;4.580;2023-11-19T12:45:35;12.70;99.90
75262;DHT22;63859;51.064;4.580;2023-11-19T12:48:07;12.90;99.90
75262;DHT22;63859;51.064;4.580;2023-11-19T12:50:53;13.10;99.90
75262;DHT22;63859;51.064;4.580;2023-11-19T12:53:23;13.30;99.90
75262;DHT22;63859;51.064;4.580;2023-11-19T12:55:50;13.20;99.90
75262;DHT22;63859;51.064;4.580;2023-11-19T12:58:30;13.20;99.90
75262;DHT22;63859;51.064;4.580;2023-11-19T13:01:03;13.40;99.90
75262;DHT22;63859;51.064;4.580;2023-11-19T13:03:30;13.50;99.90
75262;DHT22;63859;51.064;4.580;2023-11-19T13:06:13;13.70;99.90
75262;DHT22;63859;51.064;4.580;2023-11-19T13:08:46;13.70;99.90
75262;DHT22;63859;51.064;4.580;2023-11-19T13:11:14;13.40;99.90
75262;DHT22;63859;51.064;4.580;2023-11-19T13:14:03;13.20;99.90
75262;DHT22;63859;51.064;4.580;2023-11-19T13:16:29;13.10;99.90
75262;DHT22;63859;51.064;4.580;2023-11-19T13:18:56;13.00;99.90
75262;DHT22;63859;51.064;4.580;2023-11-19T13:21:23;12.80;99.90
75262;DHT22;63859;51.064;4.580;2023-11-19T13:23:49;12.70;99.90
75262;DHT22;63859;51.064;4.580;2023-11-19T13:26:15;12.60;99.90
75262;DHT22;63859;51.064;4.580;2023-11-19T13:28:41;12.50;99.90
75262;DHT22;63859;51.064;4.580;2023-11-19T13:31:07;12.40;99.90
75262;DHT22;63859;51.064;4.580;2023-11-19T13:33:33;12.40;99.90
75262;DHT22;63859;51.064;4.580;2023-11-19T13:35:59;12.40;99.90
75262;DHT22;63859;51.064;4.580;2023-11-19T13:38:31;12.50;99.90
75262;DHT22;63859;51.064;4.580;2023-11-19T13:40:57;12.60;99.90
75262;DHT22;63859;51.064;4.580;2023-11-19T13:43:22;12.50;99.90
75262;DHT22;63859;51.064;4.580;2023-11-19T13:45:48;12.60;99.90
75262;DHT22;63859;51.064;4.580;2023-11-19T13:48:14;12.60;99.90
75262;DHT22;63859;51.064;4.580;2023-11-19T13:50:39;12.70;99.90
75262;DHT22;63859;51.064;4.580;2023-11-19T13:53:05;12.90;99.90
75262;DHT22;63859;51.064;4.580;2023-11-19T13:55:30;13.00;99.90
75262;DHT22;63859;51.064;4.580;2023-11-19T13:57:56;13.00;99.90
75262;DHT22;63859;51.064;4.580;2023-11-19T14:00:22;13.00;99.90
75262;DHT22;63859;51.064;4.580;2023-11-19T14:02:49;13.00;99.90
75262;DHT22;63859;51.064;4.580;2023-11-19T14:05:15;12.90;99.90
75262;DHT22;63859;51.064;4.580;2023-11-19T14:07:43;12.90;99.90
75262;DHT22;63859;51.064;4.580;2023-11-19T14:10:09;12.80;99.90
75262;DHT22;63859;51.064;4.580;2023-11-19T14:12:39;12.80;99.90
75262;DHT22;63859;51.064;4.580;2023-11-19T14:15:09;12.70;99.90
75262;DHT22;63859;51.064;4.580;2023-11-19T14:17:36;12.70;99.90
75262;DHT22;63859;51.064;4.580;2023-11-19T14:20:02;12.70;99.90
75262;DHT22;63859;51.064;4.580;2023-11-19T14:22:41;12.60;99.90
75262;DHT22;63859;51.064;4.580;2023-11-19T14:25:08;12.60;99.90
75262;DHT22;63859;51.064;4.580;2023-11-19T14:27:42;12.60;99.90
75262;DHT22;63859;51.064;4.580;2023-11-19T14:30:10;12.60;99.90
75262;DHT22;63859;51.064;4.580;2023-11-19T14:32:43;12.50;99.90
75262;DHT22;63859;51.064;4.580;2023-11-19T14:35:12;12.50;99.90
75262;DHT22;63859;51.064;4.580;2023-11-19T14:37:38;12.40;99.90
75262;DHT22;63859;51.064;4.580;2023-11-19T14:40:04;12.40;99.90
75262;DHT22;63859;51.064;4.580;2023-11-19T14:42:31;12.30;99.90
75262;DHT22;63859;51.064;4.580;2023-11-19T14:44:56;12.30;99.90
75262;DHT22;63859;51.064;4.580;2023-11-19T14:47:22;12.20;99.90
75262;DHT22;63859;51.064;4.580;2023-11-19T14:49:48;12.10;99.90
75262;DHT22;63859;51.064;4.580;2023-11-19T14:52:14;12.10;99.90
75262;DHT22;63859;51.064;4.580;2023-11-19T14:54:40;12.00;99.90
75262;DHT22;63859;51.064;4.580;2023-11-19T14:57:06;12.00;99.90
75262;DHT22;63859;51.064;4.580;2023-11-19T14:59:34;11.90;99.90
75262;DHT22;63859;51.064;4.580;2023-11-19T15:01:59;11.90;99.90
75262;DHT22;63859;51.064;4.580;2023-11-19T15:04:26;11.90;99.90
75262;DHT22;63859;51.064;4.580;2023-11-19T15:06:52;11.80;99.90
75262;DHT22;63859;51.064;4.580;2023-11-19T15:09:18;11.80;99.90
75262;DHT22;63859;51.064;4.580;2023-11-19T15:11:44;11.80;99.90
75262;DHT22;63859;51.064;4.580;2023-11-19T15:14:13;11.80;99.90
75262;DHT22;63859;51.064;4.580;2023-11-19T15:16:45;11.80;99.90
75262;DHT22;63859;51.064;4.580;2023-11-19T15:19:11;11.80;99.90
75262;DHT22;63859;51.064;4.580;2023-11-19T15:21:43;11.80;99.90
75262;DHT22;63859;51.064;4.580;2023-11-19T15:24:09;11.90;99.90
75262;DHT22;63859;51.064;4.580;2023-11-19T15:26:36;11.90;99.90
75262;DHT22;63859;51.064;4.580;2023-11-19T15:29:03;11.90;99.90
75262;DHT22;63859;51.064;4.580;2023-11-19T15:31:29;11.90;99.90
75262;DHT22;63859;51.064;4.580;2023-11-19T15:33:56;11.90;99.90
75262;DHT22;63859;51.064;4.580;2023-11-19T15:36:21;11.90;99.90
75262;DHT22;63859;51.064;4.580;2023-11-19T15:38:47;11.90;99.90
75262;DHT22;63859;51.064;4.580;2023-11-19T15:41:13;11.90;99.90
75262;DHT22;63859;51.064;4.580;2023-11-19T15:43:39;11.90;99.90
75262;DHT22;63859;51.064;4.580;2023-11-19T15:46:08;11.90;99.90
75262;DHT22;63859;51.064;4.580;2023-11-19T15:48:34;11.90;99.90
75262;DHT22;63859;51.064;4.580;2023-11-19T15:51:00;11.90;99.90
75262;DHT22;63859;51.064;4.580;2023-11-19T15:53:26;11.90;99.90